createdAt,value
2023-05-19T00:00:53.550Z,80.85
2023-05-19T00:01:53.594Z,79.27
2023-05-19T00:02:53.626Z,81.42
2023-05-19T00:03:53.608Z,78.54
2023-05-19T00:04:53.610Z,81.61
2023-05-19T00:05:53.727Z,76.94
2023-05-19T00:06:53.634Z,80.73
2023-05-19T00:07:53.635Z,78.80
2023-05-19T00:08:53.663Z,83.17
2023-05-19T00:09:53.672Z,80.68
2023-05-19T00:10:53.698Z,81.47
2023-05-19T00:11:53.657Z,78.14
2023-05-19T00:12:53.927Z,78.15
2023-05-19T00:13:53.749Z,80.72
2023-05-19T00:14:53.750Z,77.71
2023-05-19T00:15:53.859Z,83.30
2023-05-19T00:16:53.785Z,80.76
2023-05-19T00:17:53.801Z,85.11
2023-05-19T00:18:53.851Z,81.49
2023-05-19T00:19:53.812Z,81.67
2023-05-19T00:20:53.818Z,83.05
2023-05-19T00:21:53.838Z,81.44
2023-05-19T00:22:53.859Z,82.02
2023-05-19T00:23:53.876Z,82.99
2023-05-19T00:24:53.893Z,81.16
2023-05-19T00:25:53.923Z,80.67
2023-05-19T00:26:53.992Z,79.22
2023-05-19T00:27:53.936Z,80.57
2023-05-19T00:28:53.936Z,82.88
2023-05-19T00:29:53.924Z,82.57
2023-05-19T00:30:53.964Z,81.10
2023-05-19T00:31:53.973Z,81.16
2023-05-19T00:32:54.009Z,79.89
2023-05-19T00:33:54.018Z,80.42
2023-05-19T00:34:54.000Z,84.37
2023-05-19T00:35:54.027Z,82.86
2023-05-19T00:36:54.078Z,83.37
2023-05-19T00:37:54.041Z,82.95
2023-05-19T00:38:54.081Z,79.20
2023-05-19T00:39:54.137Z,81.29
2023-05-19T00:40:54.294Z,82.70
2023-05-19T00:41:54.096Z,80.48
2023-05-19T00:42:54.114Z,82.03
2023-05-19T00:43:54.175Z,81.60
2023-05-19T00:44:54.165Z,80.78
2023-05-19T00:45:54.175Z,82.11
2023-05-19T00:46:54.256Z,82.93
2023-05-19T00:47:54.218Z,83.49
2023-05-19T00:48:54.196Z,81.05
2023-05-19T00:49:54.192Z,81.87
2023-05-19T00:50:54.220Z,84.64
2023-05-19T00:51:54.211Z,82.78
2023-05-19T00:52:54.236Z,83.96
2023-05-19T00:53:54.245Z,84.65
2023-05-19T00:54:54.268Z,82.32
2023-05-19T00:55:54.314Z,86.00
2023-05-19T00:56:54.305Z,85.21
2023-05-19T00:57:54.304Z,82.59
2023-05-19T00:58:54.341Z,83.58
2023-05-19T00:59:54.385Z,85.62
2023-05-19T01:00:54.346Z,86.81
2023-05-19T01:01:54.358Z,84.93
2023-05-19T01:02:54.462Z,83.12
2023-05-19T01:03:54.486Z,80.86
2023-05-19T01:04:54.394Z,84.36
2023-05-19T01:05:54.674Z,84.62
2023-05-19T01:06:54.410Z,84.29
2023-05-19T01:07:54.415Z,84.45
2023-05-19T01:08:54.438Z,83.58
2023-05-19T01:09:54.421Z,85.23
2023-05-19T01:10:54.474Z,85.63
2023-05-19T01:11:54.493Z,82.72
2023-05-19T01:12:54.468Z,85.76
2023-05-19T01:13:54.530Z,83.82
2023-05-19T01:14:54.535Z,84.18
2023-05-19T01:15:54.567Z,84.27
2023-05-19T01:16:54.738Z,81.00
2023-05-19T01:17:54.648Z,82.35
2023-05-19T01:18:54.675Z,83.54
2023-05-19T01:19:54.590Z,83.91
2023-05-19T01:20:54.671Z,84.56
2023-05-19T01:21:54.652Z,83.96
2023-05-19T01:22:54.655Z,84.38
2023-05-19T01:23:54.668Z,83.11
2023-05-19T01:24:54.654Z,79.93
2023-05-19T01:25:54.685Z,82.62
2023-05-19T01:26:54.716Z,80.70
2023-05-19T01:27:54.683Z,80.90
2023-05-19T01:28:54.726Z,79.56
2023-05-19T01:29:54.747Z,84.58
2023-05-19T01:30:54.749Z,80.14
2023-05-19T01:31:54.779Z,84.09
2023-05-19T01:32:54.821Z,83.48
2023-05-19T01:33:54.761Z,77.04
2023-05-19T01:34:54.768Z,84.34
2023-05-19T01:35:54.779Z,84.01
2023-05-19T01:36:54.838Z,84.70
2023-05-19T01:37:54.828Z,81.15
2023-05-19T01:38:54.852Z,81.81
2023-05-19T01:39:54.857Z,81.00
2023-05-19T01:40:54.876Z,84.67
2023-05-19T01:41:54.968Z,84.18
2023-05-19T01:42:57.309Z,84.30
2023-05-19T01:43:55.159Z,85.90
2023-05-19T01:44:55.189Z,83.68
2023-05-19T01:45:55.208Z,82.62
2023-05-19T01:46:55.190Z,85.49
2023-05-19T01:47:55.261Z,85.36
2023-05-19T01:48:55.221Z,82.02
2023-05-19T01:49:55.256Z,78.58
2023-05-19T01:50:55.299Z,81.59
2023-05-19T01:51:55.277Z,82.50
2023-05-19T01:52:55.307Z,83.36
2023-05-19T01:53:55.318Z,84.26
2023-05-19T01:54:55.325Z,83.55
2023-05-19T01:55:55.361Z,83.12
2023-05-19T01:56:55.337Z,86.21
2023-05-19T01:57:55.350Z,84.22
2023-05-19T01:58:55.342Z,80.63
2023-05-19T01:59:55.409Z,83.61
2023-05-19T02:00:55.436Z,83.93
2023-05-19T02:01:55.393Z,78.27
2023-05-19T02:02:55.418Z,79.92
2023-05-19T02:03:55.472Z,80.60
2023-05-19T02:04:55.425Z,81.33
2023-05-19T02:05:55.668Z,83.93
2023-05-19T02:06:55.454Z,82.51
2023-05-19T02:07:55.465Z,83.33
2023-05-19T02:08:55.524Z,82.08
2023-05-19T02:09:55.494Z,79.91
2023-05-19T02:10:55.497Z,81.20
2023-05-19T02:11:55.548Z,85.37
2023-05-19T02:12:55.521Z,81.15
2023-05-19T02:13:55.557Z,80.98
2023-05-19T02:14:55.568Z,83.47
2023-05-19T02:15:55.588Z,82.64
2023-05-19T02:16:55.603Z,81.86
2023-05-19T02:17:55.689Z,81.79
2023-05-19T02:18:55.657Z,80.68
2023-05-19T02:19:55.637Z,82.81
2023-05-19T02:20:56.018Z,80.45
2023-05-19T02:21:56.061Z,81.60
2023-05-19T02:22:55.760Z,83.94
2023-05-19T02:23:55.767Z,84.37
2023-05-19T02:24:55.828Z,81.78
2023-05-19T02:25:55.844Z,85.94
2023-05-19T02:26:55.850Z,87.27
2023-05-19T02:27:55.855Z,83.44
2023-05-19T02:28:55.856Z,83.92
2023-05-19T02:29:55.880Z,86.13
2023-05-19T02:30:55.878Z,83.50
2023-05-19T02:31:55.980Z,85.00
2023-05-19T02:32:55.992Z,86.80
2023-05-19T02:33:55.938Z,81.14
2023-05-19T02:34:55.937Z,82.83
2023-05-19T02:35:55.963Z,84.50
2023-05-19T02:36:56.158Z,83.93
2023-05-19T02:37:55.962Z,85.74
2023-05-19T02:38:55.970Z,84.47
2023-05-19T02:39:56.029Z,81.70
2023-05-19T02:40:56.002Z,85.72
2023-05-19T02:41:56.102Z,83.96
2023-05-19T02:42:56.064Z,84.26
2023-05-19T02:43:56.026Z,81.69
2023-05-19T02:44:56.072Z,85.89
2023-05-19T02:45:56.100Z,84.98
2023-05-19T02:46:56.119Z,86.17
2023-05-19T02:47:56.140Z,84.61
2023-05-19T02:48:56.144Z,85.80
2023-05-19T02:49:56.166Z,87.72
2023-05-19T02:50:56.235Z,82.43
2023-05-19T02:51:56.201Z,83.86
2023-05-19T02:52:56.200Z,84.60
2023-05-19T02:53:56.376Z,85.07
2023-05-19T02:54:56.248Z,81.70
2023-05-19T02:55:56.296Z,86.33
2023-05-19T02:56:56.265Z,85.51
2023-05-19T02:57:56.304Z,83.26
2023-05-19T02:58:56.319Z,86.62
2023-05-19T02:59:56.325Z,80.47
2023-05-19T03:00:56.316Z,85.92
2023-05-19T03:01:56.360Z,85.80
2023-05-19T03:02:56.379Z,85.38
2023-05-19T03:03:56.427Z,86.56
2023-05-19T03:04:56.396Z,87.37
2023-05-19T03:05:56.398Z,87.08
2023-05-19T03:06:56.433Z,86.96
2023-05-19T03:07:56.440Z,84.95
2023-05-19T03:08:56.457Z,86.34
2023-05-19T03:09:56.444Z,86.56
2023-05-19T03:10:56.498Z,86.65
2023-05-19T03:11:56.505Z,83.13
2023-05-19T03:12:56.502Z,86.57
2023-05-19T03:13:56.511Z,84.93
2023-05-19T03:14:56.534Z,83.49
2023-05-19T03:15:56.593Z,86.72
2023-05-19T03:16:57.012Z,88.72
2023-05-19T03:17:56.678Z,87.44
2023-05-19T03:18:56.674Z,85.64
2023-05-19T03:19:56.618Z,88.66
2023-05-19T03:20:56.687Z,86.12
2023-05-19T03:21:56.694Z,85.45
2023-05-19T03:22:56.673Z,88.28
2023-05-19T03:23:56.690Z,88.34
2023-05-19T03:24:56.716Z,87.63
2023-05-19T03:25:57.233Z,87.33
2023-05-19T03:26:56.708Z,86.82
2023-05-19T03:27:56.778Z,85.50
2023-05-19T03:28:56.748Z,83.90
2023-05-19T03:29:56.791Z,88.41
2023-05-19T03:30:56.815Z,86.07
2023-05-19T03:31:56.808Z,84.96
2023-05-19T03:32:56.920Z,86.92
2023-05-19T03:33:56.823Z,88.16
2023-05-19T03:34:56.869Z,86.26
2023-05-19T03:35:56.903Z,83.83
2023-05-19T03:36:57.220Z,85.80
2023-05-19T03:37:56.930Z,90.83
2023-05-19T03:38:56.939Z,85.53
2023-05-19T03:39:56.976Z,83.72
2023-05-19T03:40:56.977Z,84.68
2023-05-19T03:41:57.030Z,87.58
2023-05-19T03:42:57.028Z,84.13
2023-05-19T03:43:57.023Z,88.94
2023-05-19T03:44:57.036Z,87.11
2023-05-19T03:45:57.139Z,85.52
2023-05-19T03:46:57.089Z,86.62
2023-05-19T03:47:57.128Z,86.71
2023-05-19T03:48:57.095Z,87.13
2023-05-19T03:49:57.114Z,85.74
2023-05-19T03:50:57.157Z,85.30
2023-05-19T03:51:57.144Z,83.93
2023-05-19T03:52:57.196Z,89.88
2023-05-19T03:53:57.215Z,86.71
2023-05-19T03:54:57.207Z,87.49
2023-05-19T03:55:57.254Z,84.32
2023-05-19T03:56:57.274Z,85.79
2023-05-19T03:57:57.420Z,84.66
2023-05-19T03:58:57.304Z,87.03
2023-05-19T03:59:57.303Z,83.76
2023-05-19T04:00:57.315Z,86.41
2023-05-19T04:01:57.353Z,83.74
2023-05-19T04:02:57.438Z,87.64
2023-05-19T04:03:57.419Z,87.38
2023-05-19T04:04:57.547Z,86.19
2023-05-19T04:05:57.417Z,89.46
2023-05-19T04:06:57.442Z,83.54
2023-05-19T04:07:57.424Z,90.19
2023-05-19T04:08:57.476Z,89.63
2023-05-19T04:09:57.544Z,89.49
2023-05-19T04:10:57.698Z,86.18
2023-05-19T04:11:57.541Z,87.96
2023-05-19T04:12:57.541Z,86.13
2023-05-19T04:13:57.564Z,85.55
2023-05-19T04:14:57.583Z,89.44
2023-05-19T04:15:57.632Z,90.65
2023-05-19T04:16:58.279Z,86.96
2023-05-19T04:17:57.694Z,88.65
2023-05-19T04:18:57.690Z,88.82
2023-05-19T04:19:57.678Z,85.46
2023-05-19T04:20:57.705Z,87.89
2023-05-19T04:21:57.752Z,87.58
2023-05-19T04:22:57.765Z,86.40
2023-05-19T04:23:57.737Z,88.34
2023-05-19T04:24:57.792Z,87.32
2023-05-19T04:25:57.789Z,89.48
2023-05-19T04:26:57.795Z,89.25
2023-05-19T04:27:57.880Z,91.00
2023-05-19T04:28:57.853Z,89.64
2023-05-19T04:29:57.856Z,90.52
2023-05-19T04:30:57.922Z,87.46
2023-05-19T04:31:58.250Z,89.74
2023-05-19T04:32:57.916Z,89.99
2023-05-19T04:33:57.916Z,88.85
2023-05-19T04:34:57.916Z,85.53
2023-05-19T04:35:57.936Z,86.48
2023-05-19T04:36:57.973Z,85.86
2023-05-19T04:37:57.942Z,87.39
2023-05-19T04:38:57.985Z,89.80
2023-05-19T04:39:57.990Z,88.81
2023-05-19T04:40:57.997Z,86.95
2023-05-19T04:41:58.037Z,89.05
2023-05-19T04:42:58.046Z,89.46
2023-05-19T04:43:58.067Z,87.36
2023-05-19T04:44:58.151Z,87.56
2023-05-19T04:45:58.154Z,88.92
2023-05-19T04:46:58.225Z,88.61
2023-05-19T04:47:58.303Z,86.42
2023-05-19T04:48:58.148Z,90.34
2023-05-19T04:49:58.211Z,89.10
2023-05-19T04:50:58.216Z,91.65
2023-05-19T04:51:58.226Z,86.37
2023-05-19T04:52:58.278Z,89.22
2023-05-19T04:53:58.254Z,88.28
2023-05-19T04:54:58.304Z,89.01
2023-05-19T04:55:58.286Z,89.90
2023-05-19T04:56:58.328Z,89.19
2023-05-19T04:57:58.297Z,88.82
2023-05-19T04:58:58.384Z,90.56
2023-05-19T04:59:58.383Z,90.04
2023-05-19T05:00:58.376Z,89.05
2023-05-19T05:01:58.481Z,89.88
2023-05-19T05:02:58.479Z,87.36
2023-05-19T05:03:58.587Z,86.86
2023-05-19T05:04:58.475Z,91.74
2023-05-19T05:05:58.478Z,90.28
2023-05-19T05:06:58.509Z,89.06
2023-05-19T05:07:58.511Z,84.79
2023-05-19T05:08:58.539Z,88.34
2023-05-19T05:09:58.551Z,89.08
2023-05-19T05:10:58.542Z,87.52
2023-05-19T05:11:58.577Z,89.44
2023-05-19T05:12:58.598Z,82.98
2023-05-19T05:13:58.623Z,88.47
2023-05-19T05:14:58.612Z,84.41
2023-05-19T05:15:58.678Z,86.97
2023-05-19T05:16:58.699Z,86.18
2023-05-19T05:17:58.830Z,87.92
2023-05-19T05:18:58.825Z,86.66
2023-05-19T05:19:58.748Z,88.08
2023-05-19T05:20:58.767Z,84.49
2023-05-19T05:21:58.802Z,87.25
2023-05-19T05:22:58.783Z,84.86
2023-05-19T05:23:58.809Z,86.90
2023-05-19T05:24:58.846Z,88.41
2023-05-19T05:25:58.850Z,87.73
2023-05-19T05:26:58.859Z,82.34
2023-05-19T05:27:58.891Z,83.34
2023-05-19T05:28:58.911Z,85.22
2023-05-19T05:29:59.390Z,84.07
2023-05-19T05:30:58.951Z,83.96
2023-05-19T05:31:59.012Z,84.07
2023-05-19T05:32:59.113Z,85.02
2023-05-19T05:33:58.964Z,87.76
2023-05-19T05:34:58.995Z,84.17
2023-05-19T05:35:58.994Z,87.90
2023-05-19T05:36:59.011Z,81.48
2023-05-19T05:37:59.029Z,83.50
2023-05-19T05:38:59.052Z,85.12
2023-05-19T05:39:59.100Z,86.50
2023-05-19T05:40:59.136Z,84.12
2023-05-19T05:41:59.128Z,85.89
2023-05-19T05:42:59.225Z,82.95
2023-05-19T05:43:59.205Z,83.17
2023-05-19T05:44:59.215Z,83.83
2023-05-19T05:45:59.270Z,84.08
2023-05-19T05:46:59.267Z,81.38
2023-05-19T05:47:59.341Z,85.34
2023-05-19T05:48:59.286Z,82.87
2023-05-19T05:49:59.289Z,85.52
2023-05-19T05:50:59.328Z,82.50
2023-05-19T05:52:59.270Z,85.97
2023-05-19T05:53:59.287Z,85.73
2023-05-19T05:54:59.276Z,85.63
2023-05-19T05:55:59.276Z,83.89
2023-05-19T05:56:59.273Z,84.66
2023-05-19T05:57:59.240Z,83.74
2023-05-19T05:58:59.251Z,82.90
2023-05-19T05:59:59.219Z,82.67
2023-05-19T06:00:59.233Z,85.10
2023-05-19T06:01:59.253Z,85.34
2023-05-19T06:02:59.422Z,85.06
2023-05-19T06:03:59.223Z,86.54
2023-05-19T06:04:59.277Z,86.70
2023-05-19T06:05:59.294Z,86.73
2023-05-19T06:06:59.193Z,83.04
2023-05-19T06:07:59.161Z,82.75
2023-05-19T06:08:59.176Z,83.85
2023-05-19T06:09:59.159Z,86.83
2023-05-19T06:10:59.190Z,85.56
2023-05-19T06:11:59.217Z,83.86
2023-05-19T06:12:59.160Z,86.46
2023-05-19T06:13:59.161Z,87.97
2023-05-19T06:14:59.135Z,87.99
2023-05-19T06:16:00.558Z,86.94
2023-05-19T06:16:59.138Z,87.12
2023-05-19T06:17:59.302Z,87.88
2023-05-19T06:18:59.241Z,88.91
2023-05-19T06:19:59.099Z,89.50
2023-05-19T06:20:59.099Z,88.47
2023-05-19T06:21:59.080Z,89.67
2023-05-19T06:22:59.080Z,89.09
2023-05-19T06:23:59.086Z,90.78
2023-05-19T06:24:59.056Z,89.84
2023-05-19T06:25:59.068Z,90.17
2023-05-19T06:26:59.085Z,90.40
2023-05-19T06:27:59.054Z,89.24
2023-05-19T06:28:59.057Z,92.00
2023-05-19T06:29:59.052Z,88.14
2023-05-19T06:30:59.048Z,91.98
2023-05-19T06:31:59.097Z,90.47
2023-05-19T06:32:59.102Z,87.70
2023-05-19T06:33:59.029Z,89.96
2023-05-19T06:34:59.041Z,88.12
2023-05-19T06:35:59.015Z,89.29
2023-05-19T06:36:59.017Z,90.92
2023-05-19T06:37:59.022Z,87.21
2023-05-19T06:39:01.194Z,89.83
2023-05-19T06:39:59.000Z,90.02
2023-05-19T06:40:58.966Z,89.85
2023-05-19T06:41:59.244Z,90.24
2023-05-19T06:42:58.962Z,88.03
2023-05-19T06:43:58.922Z,90.71
2023-05-19T06:44:58.930Z,89.26
2023-05-19T06:45:58.927Z,88.81
2023-05-19T06:46:59.292Z,88.68
2023-05-19T06:47:58.996Z,88.03
2023-05-19T06:48:58.911Z,88.89
2023-05-19T06:49:58.930Z,87.52
2023-05-19T06:50:58.892Z,90.89
2023-05-19T06:51:58.908Z,85.85
2023-05-19T06:52:59.003Z,85.04
2023-05-19T06:53:58.876Z,89.37
2023-05-19T06:54:58.863Z,87.73
2023-05-19T06:56:00.204Z,84.60
2023-05-19T06:56:58.857Z,89.11
2023-05-19T06:57:58.864Z,82.13
2023-05-19T06:58:58.854Z,87.73
2023-05-19T06:59:58.857Z,84.38
2023-05-19T07:00:58.882Z,87.65
2023-05-19T07:01:59.319Z,89.11
2023-05-19T07:02:58.895Z,86.86
2023-05-19T07:03:58.930Z,84.09
2023-05-19T07:04:58.845Z,85.14
2023-05-19T07:05:58.836Z,82.84
2023-05-19T07:06:59.272Z,84.89
2023-05-19T07:07:58.783Z,85.58
2023-05-19T07:08:58.831Z,84.42
2023-05-19T07:09:58.788Z,84.63
2023-05-19T07:10:58.779Z,86.67
2023-05-19T07:11:59.243Z,85.77
2023-05-19T07:12:58.791Z,83.12
2023-05-19T07:13:58.749Z,84.15
2023-05-19T07:14:58.762Z,83.43
2023-05-19T07:15:58.747Z,80.80
2023-05-19T07:16:58.752Z,81.07
2023-05-19T07:17:58.806Z,83.85
2023-05-19T07:18:58.835Z,84.64
2023-05-19T07:19:58.728Z,80.52
2023-05-19T07:20:58.702Z,83.66
2023-05-19T07:21:58.763Z,81.63
2023-05-19T07:22:58.708Z,80.20
2023-05-19T07:23:58.710Z,81.50
2023-05-19T07:24:58.721Z,77.57
2023-05-19T07:25:58.670Z,76.84
2023-05-19T07:26:58.775Z,78.82
2023-05-19T07:27:58.632Z,77.54
2023-05-19T07:28:58.640Z,79.10
2023-05-19T07:29:58.654Z,79.88
2023-05-19T07:30:58.627Z,76.08
2023-05-19T07:31:58.755Z,75.73
2023-05-19T07:32:58.697Z,77.38
2023-05-19T07:33:58.652Z,80.99
2023-05-19T07:34:58.643Z,78.12
2023-05-19T07:35:58.703Z,79.64
2023-05-19T07:36:58.804Z,81.31
2023-05-19T07:37:58.712Z,75.45
2023-05-19T07:38:58.760Z,76.15
2023-05-19T07:39:58.713Z,78.27
2023-05-19T07:40:58.937Z,75.47
2023-05-19T07:41:58.774Z,78.26
2023-05-19T07:42:58.745Z,75.09
2023-05-19T07:43:58.793Z,75.41
2023-05-19T07:44:58.791Z,73.77
2023-05-19T07:45:58.849Z,75.84
2023-05-19T07:46:58.828Z,74.00
2023-05-19T07:47:58.852Z,74.76
2023-05-19T07:48:58.907Z,73.84
2023-05-19T07:49:58.869Z,73.67
2023-05-19T07:50:58.899Z,72.56
2023-05-19T07:51:58.920Z,71.55
2023-05-19T07:52:58.964Z,75.29
2023-05-19T07:53:58.957Z,73.55
2023-05-19T07:54:58.947Z,74.09
2023-05-19T07:55:58.987Z,75.26
2023-05-19T07:56:59.290Z,72.36
2023-05-19T07:57:59.004Z,73.35
2023-05-19T07:58:59.048Z,72.68
2023-05-19T07:59:59.062Z,74.05
2023-05-19T08:00:59.059Z,74.51
2023-05-19T08:01:59.292Z,73.25
2023-05-19T08:02:59.127Z,71.27
2023-05-19T08:03:59.177Z,76.08
2023-05-19T08:04:59.112Z,72.39
2023-05-19T08:05:59.177Z,73.47
2023-05-19T08:06:59.174Z,75.46
2023-05-19T08:07:59.170Z,70.57
2023-05-19T08:08:59.211Z,72.40
2023-05-19T08:09:59.228Z,71.01
2023-05-19T08:10:59.239Z,69.28
2023-05-19T08:11:59.258Z,74.85
2023-05-19T08:12:59.243Z,74.76
2023-05-19T08:13:59.315Z,70.95
2023-05-19T08:15:01.448Z,72.54
2023-05-19T08:15:59.528Z,71.94
2023-05-19T08:16:59.478Z,73.12
2023-05-19T08:17:59.574Z,73.32
2023-05-19T08:18:59.546Z,71.64
2023-05-19T08:19:59.504Z,75.40
2023-05-19T08:20:59.504Z,68.63
2023-05-19T08:21:59.540Z,72.32
2023-05-19T08:22:59.673Z,70.02
2023-05-19T08:23:59.578Z,70.29
2023-05-19T08:24:59.581Z,69.12
2023-05-19T08:25:59.598Z,69.38
2023-05-19T08:26:59.643Z,74.85
2023-05-19T08:27:59.617Z,69.21
2023-05-19T08:28:59.677Z,71.05
2023-05-19T08:29:59.653Z,69.22
2023-05-19T08:30:59.651Z,68.88
2023-05-19T08:31:59.683Z,71.00
2023-05-19T08:32:59.750Z,70.14
2023-05-19T08:33:59.761Z,69.48
2023-05-19T08:34:59.740Z,70.40
2023-05-19T08:35:59.727Z,67.55
2023-05-19T08:36:59.804Z,66.67
2023-05-19T08:37:59.793Z,70.80
2023-05-19T08:38:59.760Z,69.18
2023-05-19T08:39:59.783Z,68.56
2023-05-19T08:40:59.835Z,71.84
2023-05-19T08:41:59.824Z,68.34
2023-05-19T08:42:59.874Z,69.70
2023-05-19T08:43:59.863Z,68.82
2023-05-19T08:44:59.862Z,69.54
2023-05-19T08:45:59.871Z,68.30
2023-05-19T08:47:00.036Z,65.95
2023-05-19T08:47:59.994Z,70.52
2023-05-19T08:49:00.122Z,69.24
2023-05-19T08:49:59.909Z,65.81
2023-05-19T08:50:59.940Z,68.16
2023-05-19T08:51:59.971Z,64.34
2023-05-19T08:52:59.964Z,65.75
2023-05-19T08:53:59.958Z,65.89
2023-05-19T08:54:59.972Z,64.35
2023-05-19T08:55:59.995Z,64.76
2023-05-19T08:57:00.005Z,66.60
2023-05-19T08:58:00.025Z,67.33
2023-05-19T08:59:00.036Z,67.38
2023-05-19T09:00:00.147Z,67.71
2023-05-19T09:01:00.133Z,66.49
2023-05-19T09:02:00.302Z,65.94
2023-05-19T09:03:06.035Z,65.36
2023-05-19T09:04:01.247Z,65.69
2023-05-19T09:05:00.312Z,66.18
2023-05-19T09:06:00.186Z,66.20
2023-05-19T09:07:00.096Z,66.36
2023-05-19T09:08:00.132Z,69.25
2023-05-19T09:09:00.058Z,65.61
2023-05-19T09:10:00.063Z,67.46
2023-05-19T09:11:00.068Z,66.22
2023-05-19T09:12:00.041Z,67.45
2023-05-19T09:13:00.107Z,68.52
2023-05-19T09:14:00.016Z,66.57
2023-05-19T09:15:00.005Z,65.37
2023-05-19T09:16:00.042Z,67.02
2023-05-19T09:17:00.067Z,63.62
2023-05-19T09:18:00.025Z,63.99
2023-05-19T09:19:00.031Z,69.20
2023-05-19T09:19:59.963Z,66.32
2023-05-19T09:20:59.983Z,67.14
2023-05-19T09:21:59.971Z,68.53
2023-05-19T09:22:59.992Z,68.47
2023-05-19T09:23:59.939Z,66.12
2023-05-19T09:24:59.948Z,71.77
2023-05-19T09:25:59.952Z,68.93
2023-05-19T09:27:00.413Z,70.14
2023-05-19T09:27:59.975Z,69.44
2023-05-19T09:28:59.960Z,70.61
2023-05-19T09:29:59.992Z,68.81
2023-05-19T09:30:59.998Z,69.73
2023-05-19T09:32:00.456Z,71.70
2023-05-19T09:33:00.025Z,68.27
2023-05-19T09:34:00.014Z,66.73
2023-05-19T09:35:00.066Z,69.92
2023-05-19T09:36:00.063Z,65.71
2023-05-19T09:37:00.339Z,70.20
2023-05-19T09:38:00.058Z,66.03
2023-05-19T09:39:00.043Z,69.92
2023-05-19T09:40:57.722Z,25.00
2023-05-19T09:41:57.829Z,25.00
2023-05-19T09:42:57.715Z,25.00
2023-05-19T09:43:57.710Z,25.00
2023-05-19T09:44:57.692Z,25.00
2023-05-19T09:45:57.723Z,29.57
2023-05-19T09:46:57.653Z,25.00
2023-05-19T09:47:57.718Z,26.48
2023-05-19T09:48:57.659Z,26.84
2023-05-19T09:49:57.646Z,27.98
2023-05-19T09:50:57.650Z,31.03
2023-05-19T09:51:57.621Z,25.69
2023-05-19T09:52:57.623Z,30.73
2023-05-19T09:53:57.628Z,31.03
2023-05-19T09:54:57.608Z,27.54
2023-05-19T09:55:57.622Z,28.60
2023-05-19T09:56:57.882Z,27.24
2023-05-19T09:57:57.586Z,31.85
2023-05-19T09:58:57.551Z,32.16
2023-05-19T09:59:57.603Z,31.06
2023-05-19T10:00:57.624Z,26.83
2023-05-19T10:01:57.559Z,35.42
2023-05-19T10:02:57.587Z,33.73
2023-05-19T10:03:57.520Z,30.13
2023-05-19T10:04:57.615Z,32.15
2023-05-19T10:05:57.512Z,29.42
2023-05-19T10:06:57.550Z,26.19
2023-05-19T10:07:57.502Z,32.40
2023-05-19T10:08:57.521Z,32.38
2023-05-19T10:09:58.677Z,32.21
2023-05-19T10:10:57.492Z,30.14
2023-05-19T10:11:57.515Z,34.45
2023-05-19T10:12:57.488Z,30.48
2023-05-19T10:13:57.489Z,29.44
2023-05-19T10:14:57.447Z,31.47
2023-05-19T10:15:59.338Z,31.42
2023-05-19T10:16:57.724Z,33.65
2023-05-19T10:17:57.738Z,31.39
2023-05-19T10:18:57.692Z,29.59
2023-05-19T10:19:57.702Z,32.56
2023-05-19T10:20:57.746Z,30.46
2023-05-19T10:21:57.720Z,31.14
2023-05-19T10:22:57.717Z,31.42
2023-05-19T10:23:57.735Z,32.16
2023-05-19T10:24:57.753Z,34.03
2023-05-19T10:25:57.775Z,28.31
2023-05-19T10:26:57.814Z,31.33
2023-05-19T10:27:57.824Z,32.24
2023-05-19T10:28:57.821Z,32.56
2023-05-19T10:29:57.881Z,28.79
2023-05-19T10:30:57.861Z,29.89
2023-05-19T10:31:57.929Z,31.16
2023-05-19T10:32:57.908Z,34.25
2023-05-19T10:33:57.915Z,33.57
2023-05-19T10:34:57.903Z,34.36
2023-05-19T10:35:57.921Z,34.63
2023-05-19T10:36:57.960Z,31.65
2023-05-19T10:37:57.928Z,28.83
2023-05-19T10:38:57.956Z,32.47
2023-05-19T10:39:58.010Z,35.59
2023-05-19T10:40:58.016Z,31.81
2023-05-19T10:41:58.053Z,31.67
2023-05-19T10:42:58.092Z,29.93
2023-05-19T10:43:58.132Z,33.08
2023-05-19T10:44:58.203Z,30.94
2023-05-19T10:45:58.235Z,30.45
2023-05-19T10:46:58.238Z,34.78
2023-05-19T10:47:58.294Z,33.98
2023-05-19T10:48:58.245Z,34.70
2023-05-19T10:49:58.283Z,35.41
2023-05-19T10:50:58.293Z,33.92
2023-05-19T10:51:58.362Z,31.91
2023-05-19T10:52:58.324Z,35.89
2023-05-19T10:53:58.321Z,37.58
2023-05-19T10:54:58.453Z,37.76
2023-05-19T10:55:58.351Z,37.41
2023-05-19T10:56:58.396Z,39.14
2023-05-19T10:57:58.418Z,37.37
2023-05-19T10:58:58.399Z,37.46
2023-05-19T10:59:58.424Z,38.53
2023-05-19T11:00:58.472Z,36.37
2023-05-19T11:01:58.525Z,43.31
2023-05-19T11:02:58.545Z,37.58
2023-05-19T11:03:58.550Z,40.02
2023-05-19T11:04:58.577Z,35.99
2023-05-19T11:05:58.555Z,39.14
2023-05-19T11:06:58.612Z,37.18
2023-05-19T11:07:58.613Z,37.01
2023-05-19T11:08:58.686Z,38.69
2023-05-19T11:09:58.684Z,39.69
2023-05-19T11:10:58.738Z,42.44
2023-05-19T11:11:58.738Z,37.21
2023-05-19T11:12:58.812Z,39.37
2023-05-19T11:13:58.787Z,38.31
2023-05-19T11:14:58.846Z,38.92
2023-05-19T11:15:58.895Z,39.62
2023-05-19T11:16:59.476Z,37.86
2023-05-19T11:17:59.081Z,41.31
2023-05-19T11:18:59.089Z,38.45
2023-05-19T11:19:59.058Z,43.07
2023-05-19T11:20:59.123Z,41.09
2023-05-19T11:21:59.086Z,39.38
2023-05-19T11:22:59.142Z,44.34
2023-05-19T11:23:59.254Z,44.81
2023-05-19T11:24:59.247Z,41.80
2023-05-19T11:25:59.282Z,44.87
2023-05-19T11:26:59.284Z,40.95
2023-05-19T11:27:59.338Z,45.13
2023-05-19T11:28:59.397Z,42.44
2023-05-19T11:29:59.455Z,45.09
2023-05-19T11:30:59.486Z,46.09
2023-05-19T11:31:59.548Z,46.94
2023-05-19T11:32:59.561Z,48.54
2023-05-19T11:33:59.618Z,47.34
2023-05-19T11:34:59.624Z,41.23
2023-05-19T11:35:59.692Z,44.29
2023-05-19T11:36:59.659Z,46.20
2023-05-19T11:37:59.681Z,49.22
2023-05-19T11:38:59.737Z,43.90
2023-05-19T11:39:59.809Z,45.88
2023-05-19T11:40:59.820Z,44.85
2023-05-19T11:41:59.838Z,46.96
2023-05-19T11:42:59.878Z,45.47
2023-05-19T11:43:59.937Z,49.00
2023-05-19T11:44:59.945Z,47.00
2023-05-19T11:46:00.042Z,45.98
2023-05-19T11:47:00.076Z,46.60
2023-05-19T11:48:01.935Z,45.78
2023-05-19T11:49:00.129Z,45.98
2023-05-19T11:50:00.124Z,46.67
2023-05-19T11:51:00.044Z,46.80
2023-05-19T11:52:00.434Z,46.26
2023-05-19T11:53:00.031Z,45.76
2023-05-19T11:54:00.042Z,50.73
2023-05-19T11:55:00.103Z,48.49
2023-05-19T11:56:00.000Z,46.59
2023-05-19T11:57:00.015Z,47.60
2023-05-19T11:58:59.994Z,52.28
2023-05-19T11:59:59.998Z,51.73
2023-05-19T12:01:00.001Z,50.23
2023-05-19T12:01:59.977Z,50.84
2023-05-19T12:03:00.049Z,48.87
2023-05-19T12:04:00.014Z,48.28
2023-05-19T12:04:59.919Z,52.48
2023-05-19T12:05:59.988Z,50.51
2023-05-19T12:06:59.937Z,48.02
2023-05-19T12:07:59.910Z,51.93
2023-05-19T12:08:59.920Z,53.52
2023-05-19T12:09:59.954Z,50.40
2023-05-19T12:10:59.906Z,54.72
2023-05-19T12:11:59.905Z,52.51
2023-05-19T12:12:59.934Z,53.55
2023-05-19T12:13:59.904Z,54.69
2023-05-19T12:14:59.886Z,53.60
2023-05-19T12:15:59.912Z,54.31
2023-05-19T12:16:59.948Z,53.32
2023-05-19T12:17:59.896Z,52.95
2023-05-19T12:18:59.878Z,48.35
2023-05-19T12:19:59.855Z,52.05
2023-05-19T12:20:59.839Z,52.19
2023-05-19T12:22:00.440Z,51.11
2023-05-19T12:22:59.816Z,52.01
2023-05-19T12:23:59.853Z,52.10
2023-05-19T12:24:59.821Z,51.50
2023-05-19T12:25:59.824Z,54.25
2023-05-19T12:26:59.954Z,52.48
2023-05-19T12:27:59.841Z,55.65
2023-05-19T12:28:59.829Z,54.18
2023-05-19T12:29:59.790Z,55.86
2023-05-19T12:30:59.811Z,51.18
2023-05-19T12:31:59.989Z,51.95
2023-05-19T12:32:59.826Z,53.65
2023-05-19T12:33:59.747Z,49.89
2023-05-19T12:34:59.772Z,51.27
2023-05-19T12:35:59.785Z,55.45
2023-05-19T12:36:59.788Z,50.53
2023-05-19T12:37:59.742Z,49.38
2023-05-19T12:38:59.756Z,52.44
2023-05-19T12:39:59.708Z,51.55
2023-05-19T12:40:59.722Z,53.18
2023-05-19T12:41:59.696Z,56.86
2023-05-19T12:42:59.721Z,50.96
2023-05-19T12:43:59.686Z,49.30
2023-05-19T12:45:00.902Z,52.30
2023-05-19T12:45:59.741Z,55.50
2023-05-19T12:46:59.695Z,50.73
2023-05-19T12:47:59.749Z,55.64
2023-05-19T12:48:59.688Z,53.42
2023-05-19T12:49:59.691Z,51.26
2023-05-19T12:50:59.667Z,50.85
2023-05-19T12:52:01.154Z,50.86
2023-05-19T12:52:59.725Z,51.16
2023-05-19T12:53:59.663Z,51.46
2023-05-19T12:54:59.791Z,52.86
2023-05-19T12:55:59.664Z,53.20